San Luis Potosí, México

7:41 AM CST en Octubre 30, 2014 (GMT -0600)
Ponciano Arriaga International | Change Station
CLOSE
Current Station
Aeropuerto
Location: San Luis Potosi,
Altura: 6033 ft
Estaciones meteorológicas cercanas

Alt 6033 ft 22.26 °N, 100.93 °W | Updated 55 minutes ago

Fog
Niebla
41 ° F
Sensación térmica 41 ° F
N
0
Viento Variable Viento desde Norte

Hoy
Alta -- | Baja -- ° F
--% Posibilidad de precipitaciones
Ayer
Alta -- | Baja -- ° F
Precip. -- pul
6:46 AM 6:07 PM
Creciente, 44% visible
Presión 30.32 pul
Visibilidad 0.5 Millas
Nubes
Punto de rocío 41 ° F
Humedad 100%
Precipitaciones 0.00 pul
Espesor de la nieve No disponible.
UV No disponible.
Polen No disponible.
Calidad del aire No disponible.
Flu Activity No disponible.
METAR MMSP 301246Z 00000KT 1/2SM FG VV003 05/05 A3032 RMK 8////

More Conditions Fewer Conditions

Presión 30.32 pul
Visibilidad 0.5 Millas
Nubes
Punto de rocío 41 ° F
Humedad 100%
Precipitaciones 0.00 pul
Espesor de la nieve No disponible.
UV No disponible.
Polen No disponible.
Calidad del aire No disponible.
Flu Activity No disponible.
METAR MMSP 301246Z 00000KT 1/2SM FG VV003 05/05 A3032 RMK 8////

More Conditions Fewer Conditions

10-Day Weather Forecast

Almanac

Astronomía

Oct. 30, 2014 Salida Puesta
Hora real
Crepúsculo civil
Crepúsculo náutico
Crepúsculo astronómico
Luna
Horas de luz
Horas de luz
Tomorrow will be .
, % of the Moon is Illuminated

Extremos de hoy

Máximos del país Bajas del país

Community

WunderPhotos

Upload Photos

1,766,358 ¡fotos cargadas!

WunderBlogs® & News

Nearby

Calidad del aire

  Calidad del aire Índice AQ Contaminante
Not available.

Grosos de nieve

Estación Profundido Altura

Actividad de terremotos

Ciudad Distance Mag. Tiempo y dato
Magnitud mínima muestra es 2,5.

Temperaturas de aguas costeras

Lugar Temperatura

Estaciones meteorológicas cercanas